sensor_id;sensor_type;location;lat;lon;timestamp;pressure;altitude;pressure_sealevel;temperature
34310;BMP280;61664;48.112;11.662;2022-12-07T00:01:40;95379.03;;;8.01
34310;BMP280;61664;48.112;11.662;2022-12-07T00:04:11;95382.84;;;8.00
34310;BMP280;61664;48.112;11.662;2022-12-07T00:06:45;95388.16;;;8.00
34310;BMP280;61664;48.112;11.662;2022-12-07T00:09:15;95381.50;;;7.96
34310;BMP280;61664;48.112;11.662;2022-12-07T00:11:43;95382.22;;;7.96
34310;BMP280;61664;48.112;11.662;2022-12-07T00:14:15;95383.72;;;7.97
34310;BMP280;61664;48.112;11.662;2022-12-07T00:16:43;95375.28;;;7.99
34310;BMP280;61664;48.112;11.662;2022-12-07T00:19:13;95372.19;;;8.00
34310;BMP280;61664;48.112;11.662;2022-12-07T00:21:40;95365.38;;;7.99
34310;BMP280;61664;48.112;11.662;2022-12-07T00:24:09;95370.41;;;7.97
34310;BMP280;61664;48.112;11.662;2022-12-07T00:26:39;95369.97;;;7.99
34310;BMP280;61664;48.112;11.662;2022-12-07T00:29:18;95356.50;;;7.93
34310;BMP280;61664;48.112;11.662;2022-12-07T00:31:45;95357.97;;;7.94
34310;BMP280;61664;48.112;11.662;2022-12-07T00:34:16;95367.91;;;8.03
34310;BMP280;61664;48.112;11.662;2022-12-07T00:36:43;95353.41;;;7.95
34310;BMP280;61664;48.112;11.662;2022-12-07T00:39:10;95359.19;;;8.02
34310;BMP280;61664;48.112;11.662;2022-12-07T00:41:37;95366.25;;;7.96
34310;BMP280;61664;48.112;11.662;2022-12-07T00:44:05;95369.53;;;8.00
34310;BMP280;61664;48.112;11.662;2022-12-07T00:46:31;95361.84;;;8.02
34310;BMP280;61664;48.112;11.662;2022-12-07T00:48:58;95366.28;;;8.05
34310;BMP280;61664;48.112;11.662;2022-12-07T00:51:26;95354.44;;;7.97
34310;BMP280;61664;48.112;11.662;2022-12-07T00:53:53;95363.06;;;8.01
34310;BMP280;61664;48.112;11.662;2022-12-07T00:56:26;95368.09;;;8.08
34310;BMP280;61664;48.112;11.662;2022-12-07T00:58:59;95362.47;;;8.06
34310;BMP280;61664;48.112;11.662;2022-12-07T01:01:30;95363.78;;;8.02
34310;BMP280;61664;48.112;11.662;2022-12-07T01:03:57;95353.38;;;7.85
34310;BMP280;61664;48.112;11.662;2022-12-07T01:06:25;95370.25;;;7.91
34310;BMP280;61664;48.112;11.662;2022-12-07T01:08:53;95362.69;;;7.90
34310;BMP280;61664;48.112;11.662;2022-12-07T01:11:24;95360.03;;;7.90
34310;BMP280;61664;48.112;11.662;2022-12-07T01:13:53;95350.84;;;7.82
34310;BMP280;61664;48.112;11.662;2022-12-07T01:16:23;95362.41;;;7.88
34310;BMP280;61664;48.112;11.662;2022-12-07T01:18:55;95359.72;;;7.88
34310;BMP280;61664;48.112;11.662;2022-12-07T01:21:29;95370.09;;;7.95
34310;BMP280;61664;48.112;11.662;2022-12-07T01:23:59;95368.31;;;7.92
34310;BMP280;61664;48.112;11.662;2022-12-07T01:26:27;95365.38;;;7.99
34310;BMP280;61664;48.112;11.662;2022-12-07T01:28:54;95362.00;;;7.99
34310;BMP280;61664;48.112;11.662;2022-12-07T01:31:25;95378.13;;;8.04
34310;BMP280;61664;48.112;11.662;2022-12-07T01:33:56;95364.50;;;8.02
34310;BMP280;61664;48.112;11.662;2022-12-07T01:36:26;95365.13;;;8.06
34310;BMP280;61664;48.112;11.662;2022-12-07T01:39:01;95365.13;;;8.06
34310;BMP280;61664;48.112;11.662;2022-12-07T01:41:32;95368.97;;;8.05
34310;BMP280;61664;48.112;11.662;2022-12-07T01:44:27;95364.78;;;7.95
34310;BMP280;61664;48.112;11.662;2022-12-07T01:47:02;95368.31;;;7.92
34310;BMP280;61664;48.112;11.662;2022-12-07T01:49:48;95368.28;;;7.83
34310;BMP280;61664;48.112;11.662;2022-12-07T01:52:30;95359.81;;;7.75
34310;BMP280;61664;48.112;11.662;2022-12-07T01:55:04;95349.16;;;7.66
34310;BMP280;61664;48.112;11.662;2022-12-07T01:57:37;95350.56;;;7.58
34310;BMP280;61664;48.112;11.662;2022-12-07T02:00:07;95353.97;;;7.58
34310;BMP280;61664;48.112;11.662;2022-12-07T02:02:41;95347.91;;;7.58
34310;BMP280;61664;48.112;11.662;2022-12-07T02:05:10;95354.59;;;7.63
34310;BMP280;61664;48.112;11.662;2022-12-07T02:07:38;95357.25;;;7.63
34310;BMP280;61664;48.112;11.662;2022-12-07T02:10:32;95359.19;;;7.62
34310;BMP280;61664;48.112;11.662;2022-12-07T02:13:11;95356.81;;;7.64
34310;BMP280;61664;48.112;11.662;2022-12-07T02:16:03;95358.84;;;7.60
34310;BMP280;61664;48.112;11.662;2022-12-07T02:21:41;95351.91;;;7.53
34310;BMP280;61664;48.112;11.662;2022-12-07T02:27:47;95340.91;;;7.42
34310;BMP280;61664;48.112;11.662;2022-12-07T02:30:22;95341.50;;;7.46
34310;BMP280;61664;48.112;11.662;2022-12-07T02:33:00;95339.13;;;7.48
34310;BMP280;61664;48.112;11.662;2022-12-07T02:35:44;95343.63;;;7.51
34310;BMP280;61664;48.112;11.662;2022-12-07T02:41:20;95333.88;;;7.57
34310;BMP280;61664;48.112;11.662;2022-12-07T02:43:59;95334.50;;;7.62
34310;BMP280;61664;48.112;11.662;2022-12-07T02:46:39;95346.97;;;7.74
34310;BMP280;61664;48.112;11.662;2022-12-07T02:49:09;95346.97;;;7.74
34310;BMP280;61664;48.112;11.662;2022-12-07T02:51:44;95327.88;;;7.66
34310;BMP280;61664;48.112;11.662;2022-12-07T02:54:18;95335.59;;;7.73
34310;BMP280;61664;48.112;11.662;2022-12-07T03:00:07;95344.56;;;7.67
34310;BMP280;61664;48.112;11.662;2022-12-07T03:03:04;95334.13;;;7.50
34310;BMP280;61664;48.112;11.662;2022-12-07T03:05:40;95337.72;;;7.56
34310;BMP280;61664;48.112;11.662;2022-12-07T03:14:18;95338.50;;;7.66
34310;BMP280;61664;48.112;11.662;2022-12-07T03:17:17;95332.47;;;7.66
34310;BMP280;61664;48.112;11.662;2022-12-07T03:19:48;95332.19;;;7.73
34310;BMP280;61664;48.112;11.662;2022-12-07T03:22:17;95335.16;;;7.75
34310;BMP280;61664;48.112;11.662;2022-12-07T03:24:52;95339.16;;;7.79
34310;BMP280;61664;48.112;11.662;2022-12-07T03:27:25;95334.88;;;7.82
34310;BMP280;61664;48.112;11.662;2022-12-07T03:30:17;95345.53;;;7.82
34310;BMP280;61664;48.112;11.662;2022-12-07T03:33:12;95337.53;;;7.82
34310;BMP280;61664;48.112;11.662;2022-12-07T03:36:03;95308.22;;;7.64
34310;BMP280;61664;48.112;11.662;2022-12-07T03:39:11;95319.94;;;7.75
34310;BMP280;61664;48.112;11.662;2022-12-07T03:41:40;95335.50;;;7.86
34310;BMP280;61664;48.112;11.662;2022-12-07T03:44:12;95324.25;;;7.82
34310;BMP280;61664;48.112;11.662;2022-12-07T03:47:24;95333.25;;;7.84
34310;BMP280;61664;48.112;11.662;2022-12-07T03:50:00;95326.34;;;7.87
34310;BMP280;61664;48.112;11.662;2022-12-07T03:52:40;95331.94;;;7.89
34310;BMP280;61664;48.112;11.662;2022-12-07T03:55:22;95328.41;;;7.92
34310;BMP280;61664;48.112;11.662;2022-12-07T03:57:56;95315.69;;;7.87
34310;BMP280;61664;48.112;11.662;2022-12-07T04:00:25;95321.47;;;7.95
34310;BMP280;61664;48.112;11.662;2022-12-07T04:02:54;95320.31;;;7.96
34310;BMP280;61664;48.112;11.662;2022-12-07T04:05:21;95311.72;;;7.91
34310;BMP280;61664;48.112;11.662;2022-12-07T04:07:48;95320.50;;;8.01
34310;BMP280;61664;48.112;11.662;2022-12-07T04:10:16;95321.34;;;7.98
34310;BMP280;61664;48.112;11.662;2022-12-07T04:12:43;95311.84;;;7.88
34310;BMP280;61664;48.112;11.662;2022-12-07T04:15:10;95308.28;;;7.82
34310;BMP280;61664;48.112;11.662;2022-12-07T04:17:37;95313.78;;;7.87
34310;BMP280;61664;48.112;11.662;2022-12-07T04:20:06;95319.53;;;7.86
34310;BMP280;61664;48.112;11.662;2022-12-07T04:22:33;95313.59;;;7.82
34310;BMP280;61664;48.112;11.662;2022-12-07T04:25:00;95321.16;;;7.83
34310;BMP280;61664;48.112;11.662;2022-12-07T04:27:27;95322.00;;;7.80
34310;BMP280;61664;48.112;11.662;2022-12-07T04:29:53;95317.44;;;7.81
34310;BMP280;61664;48.112;11.662;2022-12-07T04:32:23;95315.22;;;7.79
34310;BMP280;61664;48.112;11.662;2022-12-07T04:34:50;95323.91;;;7.80
34310;BMP280;61664;48.112;11.662;2022-12-07T04:37:22;95316.09;;;7.76
34310;BMP280;61664;48.112;11.662;2022-12-07T04:39:49;95320.97;;;7.78
34310;BMP280;61664;48.112;11.662;2022-12-07T04:42:16;95322.16;;;7.77
34310;BMP280;61664;48.112;11.662;2022-12-07T04:44:43;95314.75;;;7.72
34310;BMP280;61664;48.112;11.662;2022-12-07T04:47:11;95326.44;;;7.74
34310;BMP280;61664;48.112;11.662;2022-12-07T04:49:38;95326.88;;;7.73
34310;BMP280;61664;48.112;11.662;2022-12-07T04:52:05;95320.91;;;7.69
34310;BMP280;61664;48.112;11.662;2022-12-07T04:54:32;95309.66;;;7.55
34310;BMP280;61664;48.112;11.662;2022-12-07T04:56:59;95307.69;;;7.47
34310;BMP280;61664;48.112;11.662;2022-12-07T04:59:26;95319.34;;;7.49
34310;BMP280;61664;48.112;11.662;2022-12-07T05:01:52;95312.50;;;7.39
34310;BMP280;61664;48.112;11.662;2022-12-07T05:04:19;95321.22;;;7.40
34310;BMP280;61664;48.112;11.662;2022-12-07T05:06:46;95315.28;;;7.36
34310;BMP280;61664;48.112;11.662;2022-12-07T05:09:13;95322.25;;;7.33
34310;BMP280;61664;48.112;11.662;2022-12-07T05:11:40;95315.84;;;7.21
34310;BMP280;61664;48.112;11.662;2022-12-07T05:14:18;95324.84;;;7.24
34310;BMP280;61664;48.112;11.662;2022-12-07T05:16:49;95318.28;;;7.16
34310;BMP280;61664;48.112;11.662;2022-12-07T05:19:18;95325.81;;;7.17
34310;BMP280;61664;48.112;11.662;2022-12-07T05:21:45;95322.69;;;7.10
34310;BMP280;61664;48.112;11.662;2022-12-07T05:24:14;95320.44;;;7.08
34310;BMP280;61664;48.112;11.662;2022-12-07T05:26:42;95325.25;;;7.01
34310;BMP280;61664;48.112;11.662;2022-12-07T05:29:13;95327.31;;;6.97
34310;BMP280;61664;48.112;11.662;2022-12-07T05:31:40;95312.47;;;6.86
34310;BMP280;61664;48.112;11.662;2022-12-07T05:34:08;95318.38;;;6.90
34310;BMP280;61664;48.112;11.662;2022-12-07T05:36:35;95309.69;;;6.90
34310;BMP280;61664;48.112;11.662;2022-12-07T05:39:03;95308.13;;;6.80
34310;BMP280;61664;48.112;11.662;2022-12-07T05:41:30;95300.88;;;6.71
34310;BMP280;61664;48.112;11.662;2022-12-07T05:44:15;95307.09;;;6.77
34310;BMP280;61664;48.112;11.662;2022-12-07T05:46:42;95303.81;;;6.73
34310;BMP280;61664;48.112;11.662;2022-12-07T05:49:09;95318.50;;;6.87
34310;BMP280;61664;48.112;11.662;2022-12-07T05:51:36;95322.66;;;6.88
34310;BMP280;61664;48.112;11.662;2022-12-07T05:54:03;95309.22;;;6.82
34310;BMP280;61664;48.112;11.662;2022-12-07T05:56:30;95318.88;;;6.76
34310;BMP280;61664;48.112;11.662;2022-12-07T05:58:57;95320.28;;;6.68
34310;BMP280;61664;48.112;11.662;2022-12-07T06:01:42;95318.63;;;6.61
34310;BMP280;61664;48.112;11.662;2022-12-07T06:04:09;95326.97;;;6.60
34310;BMP280;61664;48.112;11.662;2022-12-07T06:06:36;95326.06;;;6.54
34310;BMP280;61664;48.112;11.662;2022-12-07T06:09:06;95325.53;;;6.46
34310;BMP280;61664;48.112;11.662;2022-12-07T06:11:33;95324.94;;;6.42
34310;BMP280;61664;48.112;11.662;2022-12-07T06:14:19;95328.00;;;6.41
34310;BMP280;61664;48.112;11.662;2022-12-07T06:16:46;95331.06;;;6.39
34310;BMP280;61664;48.112;11.662;2022-12-07T06:19:13;95335.56;;;6.42
34310;BMP280;61664;48.112;11.662;2022-12-07T06:21:40;95331.81;;;6.40
34310;BMP280;61664;48.112;11.662;2022-12-07T06:24:09;95330.03;;;6.37
34310;BMP280;61664;48.112;11.662;2022-12-07T06:26:38;95335.13;;;6.44
34310;BMP280;61664;48.112;11.662;2022-12-07T06:29:05;95330.13;;;6.46
34310;BMP280;61664;48.112;11.662;2022-12-07T06:31:32;95331.69;;;6.56
34310;BMP280;61664;48.112;11.662;2022-12-07T06:34:02;95337.59;;;6.60
34310;BMP280;61664;48.112;11.662;2022-12-07T06:36:30;95332.44;;;6.56
34310;BMP280;61664;48.112;11.662;2022-12-07T06:39:00;95336.78;;;6.63
34310;BMP280;61664;48.112;11.662;2022-12-07T06:41:27;95334.22;;;6.59
34310;BMP280;61664;48.112;11.662;2022-12-07T06:43:54;95335.28;;;6.62
34310;BMP280;61664;48.112;11.662;2022-12-07T06:46:23;95333.91;;;6.57
34310;BMP280;61664;48.112;11.662;2022-12-07T06:48:50;95325.53;;;6.46
34310;BMP280;61664;48.112;11.662;2022-12-07T06:51:17;95328.81;;;6.50
34310;BMP280;61664;48.112;11.662;2022-12-07T06:53:44;95335.72;;;6.48
34310;BMP280;61664;48.112;11.662;2022-12-07T06:56:11;95352.31;;;6.52
34310;BMP280;61664;48.112;11.662;2022-12-07T06:58:39;95351.97;;;6.50
34310;BMP280;61664;48.112;11.662;2022-12-07T07:01:15;95348.91;;;6.51
34310;BMP280;61664;48.112;11.662;2022-12-07T07:03:43;95347.09;;;6.48
34310;BMP280;61664;48.112;11.662;2022-12-07T07:06:11;95349.31;;;6.50
34310;BMP280;61664;48.112;11.662;2022-12-07T07:08:39;95351.13;;;6.53
34310;BMP280;61664;48.112;11.662;2022-12-07T07:11:08;95351.66;;;6.48
34310;BMP280;61664;48.112;11.662;2022-12-07T07:13:35;95347.81;;;6.49
34310;BMP280;61664;48.112;11.662;2022-12-07T07:16:02;95360.25;;;6.52
34310;BMP280;61664;48.112;11.662;2022-12-07T07:18:29;95356.97;;;6.48
34310;BMP280;61664;48.112;11.662;2022-12-07T07:20:56;95351.88;;;6.41
34310;BMP280;61664;48.112;11.662;2022-12-07T07:23:23;95359.44;;;6.42
34310;BMP280;61664;48.112;11.662;2022-12-07T07:25:50;95355.06;;;6.36
34310;BMP280;61664;48.112;11.662;2022-12-07T07:28:17;95364.53;;;6.37
34310;BMP280;61664;48.112;11.662;2022-12-07T07:30:45;95347.53;;;6.34
34310;BMP280;61664;48.112;11.662;2022-12-07T07:33:12;95357.53;;;6.43
34310;BMP280;61664;48.112;11.662;2022-12-07T07:35:39;95370.53;;;6.50
34310;BMP280;61664;48.112;11.662;2022-12-07T07:38:07;95361.66;;;6.44
34310;BMP280;61664;48.112;11.662;2022-12-07T07:40:34;95356.34;;;6.44
34310;BMP280;61664;48.112;11.662;2022-12-07T07:43:01;95359.00;;;6.44
34310;BMP280;61664;48.112;11.662;2022-12-07T07:45:29;95383.00;;;6.53
34310;BMP280;61664;48.112;11.662;2022-12-07T07:47:56;95376.94;;;6.52
34310;BMP280;61664;48.112;11.662;2022-12-07T07:50:23;95378.09;;;6.51
34310;BMP280;61664;48.112;11.662;2022-12-07T07:52:51;95373.53;;;6.52
34310;BMP280;61664;48.112;11.662;2022-12-07T07:55:18;95378.19;;;6.48
34310;BMP280;61664;48.112;11.662;2022-12-07T07:57:45;95361.88;;;6.37
34310;BMP280;61664;48.112;11.662;2022-12-07T08:00:21;95377.59;;;6.44
34310;BMP280;61664;48.112;11.662;2022-12-07T08:02:48;95364.19;;;6.35
34310;BMP280;61664;48.112;11.662;2022-12-07T08:05:15;95377.28;;;6.42
34310;BMP280;61664;48.112;11.662;2022-12-07T08:07:42;95390.63;;;6.38
34310;BMP280;61664;48.112;11.662;2022-12-07T08:10:12;95387.78;;;6.32
34310;BMP280;61664;48.112;11.662;2022-12-07T08:12:42;95378.56;;;6.24
34310;BMP280;61664;48.112;11.662;2022-12-07T08:15:30;95376.84;;;6.18
34310;BMP280;61664;48.112;11.662;2022-12-07T08:17:58;95373.16;;;6.15
34310;BMP280;61664;48.112;11.662;2022-12-07T08:20:25;95384.50;;;6.16
34310;BMP280;61664;48.112;11.662;2022-12-07T08:22:52;95378.22;;;6.10
34310;BMP280;61664;48.112;11.662;2022-12-07T08:25:19;95374.75;;;6.13
34310;BMP280;61664;48.112;11.662;2022-12-07T08:27:48;95384.72;;;6.21
34310;BMP280;61664;48.112;11.662;2022-12-07T08:30:15;95379.06;;;6.19
34310;BMP280;61664;48.112;11.662;2022-12-07T08:32:44;95387.34;;;6.21
34310;BMP280;61664;48.112;11.662;2022-12-07T08:35:11;95392.56;;;6.25
34310;BMP280;61664;48.112;11.662;2022-12-07T08:37:37;95393.28;;;6.25
34310;BMP280;61664;48.112;11.662;2022-12-07T08:40:07;95388.84;;;6.22
34310;BMP280;61664;48.112;11.662;2022-12-07T08:42:34;95385.34;;;6.25
34310;BMP280;61664;48.112;11.662;2022-12-07T08:45:10;95382.47;;;6.32
34310;BMP280;61664;48.112;11.662;2022-12-07T08:47:52;95378.63;;;6.33
34310;BMP280;61664;48.112;11.662;2022-12-07T08:50:22;95373.97;;;6.38
34310;BMP280;61664;48.112;11.662;2022-12-07T08:52:53;95383.50;;;6.48
34310;BMP280;61664;48.112;11.662;2022-12-07T08:55:21;95373.75;;;6.45
34310;BMP280;61664;48.112;11.662;2022-12-07T08:57:49;95385.38;;;6.60
34310;BMP280;61664;48.112;11.662;2022-12-07T09:00:16;95374.03;;;6.59
34310;BMP280;61664;48.112;11.662;2022-12-07T09:02:46;95384.44;;;6.67
34310;BMP280;61664;48.112;11.662;2022-12-07T09:05:13;95380.19;;;6.69
34310;BMP280;61664;48.112;11.662;2022-12-07T09:07:47;95386.75;;;6.77
34310;BMP280;61664;48.112;11.662;2022-12-07T09:10:15;95380.06;;;6.73
34310;BMP280;61664;48.112;11.662;2022-12-07T09:12:42;95382.59;;;6.76
34310;BMP280;61664;48.112;11.662;2022-12-07T09:15:08;95388.13;;;6.82
34310;BMP280;61664;48.112;11.662;2022-12-07T09:17:36;95383.88;;;6.84
34310;BMP280;61664;48.112;11.662;2022-12-07T09:20:05;95376.72;;;6.94
34310;BMP280;61664;48.112;11.662;2022-12-07T09:22:33;95376.31;;;6.95
34310;BMP280;61664;48.112;11.662;2022-12-07T09:25:01;95381.81;;;7.01
34310;BMP280;61664;48.112;11.662;2022-12-07T09:27:28;95375.31;;;7.02
34310;BMP280;61664;48.112;11.662;2022-12-07T09:29:55;95384.09;;;7.12
34310;BMP280;61664;48.112;11.662;2022-12-07T09:32:22;95379.84;;;7.14
34310;BMP280;61664;48.112;11.662;2022-12-07T09:34:50;95374.38;;;7.18
34310;BMP280;61664;48.112;11.662;2022-12-07T09:37:17;95379.78;;;7.27
34310;BMP280;61664;48.112;11.662;2022-12-07T09:39:44;95390.09;;;7.25
34310;BMP280;61664;48.112;11.662;2022-12-07T09:42:37;95371.19;;;7.23
34310;BMP280;61664;48.112;11.662;2022-12-07T09:45:24;95370.09;;;7.33
34310;BMP280;61664;48.112;11.662;2022-12-07T09:47:52;95363.66;;;7.43
34310;BMP280;61664;48.112;11.662;2022-12-07T09:50:24;95361.16;;;7.49
34310;BMP280;61664;48.112;11.662;2022-12-07T09:52:55;95355.41;;;7.50
34310;BMP280;61664;48.112;11.662;2022-12-07T09:55:30;95362.13;;;7.64
34310;BMP280;61664;48.112;11.662;2022-12-07T09:57:58;95366.19;;;7.78
34310;BMP280;61664;48.112;11.662;2022-12-07T10:00:25;95373.59;;;7.83
34310;BMP280;61664;48.112;11.662;2022-12-07T10:03:01;95370.50;;;7.84
34310;BMP280;61664;48.112;11.662;2022-12-07T10:05:50;95364.19;;;7.91
34310;BMP280;61664;48.112;11.662;2022-12-07T10:08:18;95361.56;;;8.00
34310;BMP280;61664;48.112;11.662;2022-12-07T10:10:54;95364.97;;;8.10
34310;BMP280;61664;48.112;11.662;2022-12-07T10:13:39;95368.41;;;8.19
34310;BMP280;61664;48.112;11.662;2022-12-07T10:18:55;95348.84;;;8.53
34310;BMP280;61664;48.112;11.662;2022-12-07T10:21:26;95341.59;;;8.63
34310;BMP280;61664;48.112;11.662;2022-12-07T10:29:33;95354.31;;;9.05
34310;BMP280;61664;48.112;11.662;2022-12-07T10:34:42;95350.16;;;8.95
34310;BMP280;61664;48.112;11.662;2022-12-07T10:37:19;95354.00;;;8.94
34310;BMP280;61664;48.112;11.662;2022-12-07T10:39:52;95349.56;;;8.91
34310;BMP280;61664;48.112;11.662;2022-12-07T10:42:25;95338.03;;;8.84
34310;BMP280;61664;48.112;11.662;2022-12-07T10:45:17;95345.31;;;8.93
34310;BMP280;61664;48.112;11.662;2022-12-07T10:48:29;95343.94;;;8.98
34310;BMP280;61664;48.112;11.662;2022-12-07T10:54:30;95337.56;;;8.95
34310;BMP280;61664;48.112;11.662;2022-12-07T10:57:43;95342.16;;;9.04
34310;BMP280;61664;48.112;11.662;2022-12-07T11:00:18;95329.56;;;9.13
34310;BMP280;61664;48.112;11.662;2022-12-07T11:02:58;95325.28;;;9.16
34310;BMP280;61664;48.112;11.662;2022-12-07T11:18:36;95313.72;;;9.19
34310;BMP280;61664;48.112;11.662;2022-12-07T11:21:28;95304.81;;;9.31
34310;BMP280;61664;48.112;11.662;2022-12-07T11:24:18;95300.00;;;9.53
34310;BMP280;61664;48.112;11.662;2022-12-07T11:32:45;95291.06;;;10.76
34310;BMP280;61664;48.112;11.662;2022-12-07T11:35:44;95277.97;;;10.63
34310;BMP280;61664;48.112;11.662;2022-12-07T11:38:17;95290.75;;;10.59
34310;BMP280;61664;48.112;11.662;2022-12-07T11:41:00;95296.03;;;10.68
34310;BMP280;61664;48.112;11.662;2022-12-07T11:44:08;95285.72;;;10.61
34310;BMP280;61664;48.112;11.662;2022-12-07T11:47:09;95278.66;;;10.49
34310;BMP280;61664;48.112;11.662;2022-12-07T11:49:47;95283.19;;;10.43
34310;BMP280;61664;48.112;11.662;2022-12-07T11:52:32;95281.31;;;10.34
34310;BMP280;61664;48.112;11.662;2022-12-07T11:55:21;95271.16;;;10.24
34310;BMP280;61664;48.112;11.662;2022-12-07T11:58:05;95264.44;;;10.04
34310;BMP280;61664;48.112;11.662;2022-12-07T12:00:37;95264.69;;;9.92
34310;BMP280;61664;48.112;11.662;2022-12-07T12:03:16;95267.22;;;9.86
34310;BMP280;61664;48.112;11.662;2022-12-07T12:05:46;95269.03;;;9.80
34310;BMP280;61664;48.112;11.662;2022-12-07T12:08:34;95247.97;;;9.58
34310;BMP280;61664;48.112;11.662;2022-12-07T12:17:47;95254.09;;;9.40
34310;BMP280;61664;48.112;11.662;2022-12-07T12:20:40;95250.06;;;9.21
34310;BMP280;61664;48.112;11.662;2022-12-07T12:26:29;95240.53;;;9.29
34310;BMP280;61664;48.112;11.662;2022-12-07T12:29:32;95245.22;;;9.43
34310;BMP280;61664;48.112;11.662;2022-12-07T12:32:14;95243.72;;;9.42
34310;BMP280;61664;48.112;11.662;2022-12-07T12:37:44;95237.16;;;9.19
34310;BMP280;61664;48.112;11.662;2022-12-07T12:42:58;95245.78;;;8.96
34310;BMP280;61664;48.112;11.662;2022-12-07T12:45:32;95248.31;;;8.91
34310;BMP280;61664;48.112;11.662;2022-12-07T12:50:47;95243.47;;;8.80
34310;BMP280;61664;48.112;11.662;2022-12-07T12:56:29;95238.00;;;8.65
34310;BMP280;61664;48.112;11.662;2022-12-07T12:59:39;95246.28;;;8.76
34310;BMP280;61664;48.112;11.662;2022-12-07T13:02:28;95224.50;;;8.87
34310;BMP280;61664;48.112;11.662;2022-12-07T13:05:01;95228.94;;;8.90
34310;BMP280;61664;48.112;11.662;2022-12-07T13:15:41;95224.09;;;8.70
34310;BMP280;61664;48.112;11.662;2022-12-07T13:18:44;95222.59;;;8.69
34310;BMP280;61664;48.112;11.662;2022-12-07T13:23:52;95215.50;;;8.75
34310;BMP280;61664;48.112;11.662;2022-12-07T13:29:17;95222.84;;;8.99
34310;BMP280;61664;48.112;11.662;2022-12-07T13:31:50;95210.53;;;9.10
34310;BMP280;61664;48.112;11.662;2022-12-07T13:34:32;95217.91;;;9.15
34310;BMP280;61664;48.112;11.662;2022-12-07T13:37:12;95194.66;;;9.16
34310;BMP280;61664;48.112;11.662;2022-12-07T13:39:51;95218.91;;;9.27
34310;BMP280;61664;48.112;11.662;2022-12-07T13:42:31;95218.81;;;9.22
34310;BMP280;61664;48.112;11.662;2022-12-07T13:45:20;95214.97;;;9.04
34310;BMP280;61664;48.112;11.662;2022-12-07T13:47:57;95203.63;;;8.85
34310;BMP280;61664;48.112;11.662;2022-12-07T13:50:30;95219.06;;;8.81
34310;BMP280;61664;48.112;11.662;2022-12-07T13:53:00;95216.69;;;8.74
34310;BMP280;61664;48.112;11.662;2022-12-07T13:55:29;95209.59;;;8.71
34310;BMP280;61664;48.112;11.662;2022-12-07T13:57:56;95211.66;;;8.76
34310;BMP280;61664;48.112;11.662;2022-12-07T14:00:29;95211.94;;;8.78
34310;BMP280;61664;48.112;11.662;2022-12-07T14:03:02;95209.56;;;8.80
34310;BMP280;61664;48.112;11.662;2022-12-07T14:05:35;95212.22;;;8.80
34310;BMP280;61664;48.112;11.662;2022-12-07T14:08:21;95197.44;;;8.79
34310;BMP280;61664;48.112;11.662;2022-12-07T14:16:36;95207.47;;;8.84
34310;BMP280;61664;48.112;11.662;2022-12-07T14:19:21;95213.13;;;8.77
34310;BMP280;61664;48.112;11.662;2022-12-07T14:22:28;95210.38;;;8.63
34310;BMP280;61664;48.112;11.662;2022-12-07T14:25:02;95212.75;;;8.51
34310;BMP280;61664;48.112;11.662;2022-12-07T14:27:36;95213.31;;;8.37
34310;BMP280;61664;48.112;11.662;2022-12-07T14:30:05;95208.88;;;8.34
34310;BMP280;61664;48.112;11.662;2022-12-07T14:32:37;95200.00;;;8.28
34310;BMP280;61664;48.112;11.662;2022-12-07T14:35:13;95213.75;;;8.27
34310;BMP280;61664;48.112;11.662;2022-12-07T14:37:42;95213.94;;;8.32
34310;BMP280;61664;48.112;11.662;2022-12-07T14:40:18;95204.28;;;8.35
34310;BMP280;61664;48.112;11.662;2022-12-07T14:42:50;95217.59;;;8.35
34310;BMP280;61664;48.112;11.662;2022-12-07T14:45:21;95211.09;;;8.27
34310;BMP280;61664;48.112;11.662;2022-12-07T14:47:49;95214.94;;;8.16
34310;BMP280;61664;48.112;11.662;2022-12-07T14:50:40;95209.16;;;8.09
34310;BMP280;61664;48.112;11.662;2022-12-07T14:53:50;95208.88;;;7.98
34310;BMP280;61664;48.112;11.662;2022-12-07T14:56:24;95203.81;;;7.90
34310;BMP280;61664;48.112;11.662;2022-12-07T14:58:51;95191.69;;;7.80
34310;BMP280;61664;48.112;11.662;2022-12-07T15:01:18;95193.16;;;7.72
34310;BMP280;61664;48.112;11.662;2022-12-07T15:03:45;95189.13;;;7.58
34310;BMP280;61664;48.112;11.662;2022-12-07T15:06:17;95194.16;;;7.56
34310;BMP280;61664;48.112;11.662;2022-12-07T15:08:45;95194.75;;;7.51
34310;BMP280;61664;48.112;11.662;2022-12-07T15:11:17;95201.22;;;7.50
34310;BMP280;61664;48.112;11.662;2022-12-07T15:13:45;95197.03;;;7.40
34310;BMP280;61664;48.112;11.662;2022-12-07T15:16:30;95191.09;;;7.27
34310;BMP280;61664;48.112;11.662;2022-12-07T15:19:23;95202.91;;;7.26
34310;BMP280;61664;48.112;11.662;2022-12-07T15:21:54;95187.63;;;7.08
34310;BMP280;61664;48.112;11.662;2022-12-07T15:24:22;95202.81;;;7.08
34310;BMP280;61664;48.112;11.662;2022-12-07T15:26:50;95201.47;;;7.03
34310;BMP280;61664;48.112;11.662;2022-12-07T15:29:18;95189.34;;;6.93
34310;BMP280;61664;48.112;11.662;2022-12-07T15:31:51;95182.63;;;6.88
34310;BMP280;61664;48.112;11.662;2022-12-07T15:34:25;95197.00;;;6.91
34310;BMP280;61664;48.112;11.662;2022-12-07T15:36:52;95199.75;;;6.87
34310;BMP280;61664;48.112;11.662;2022-12-07T15:39:19;95192.91;;;6.77
34310;BMP280;61664;48.112;11.662;2022-12-07T15:41:45;95187.84;;;6.70
34310;BMP280;61664;48.112;11.662;2022-12-07T15:44:13;95207.06;;;6.74
34310;BMP280;61664;48.112;11.662;2022-12-07T15:47:00;95205.88;;;6.75
34310;BMP280;61664;48.112;11.662;2022-12-07T15:49:27;95201.31;;;6.76
34310;BMP280;61664;48.112;11.662;2022-12-07T15:51:54;95207.06;;;6.74
34310;BMP280;61664;48.112;11.662;2022-12-07T15:54:27;95200.13;;;6.77
34310;BMP280;61664;48.112;11.662;2022-12-07T15:56:56;95194.09;;;6.76
34310;BMP280;61664;48.112;11.662;2022-12-07T15:59:25;95189.47;;;6.68
34310;BMP280;61664;48.112;11.662;2022-12-07T16:01:53;95197.88;;;6.66
34310;BMP280;61664;48.112;11.662;2022-12-07T16:04:20;95190.13;;;6.59
34310;BMP280;61664;48.112;11.662;2022-12-07T16:06:47;95182.44;;;6.52
34310;BMP280;61664;48.112;11.662;2022-12-07T16:09:14;95182.09;;;6.50
34310;BMP280;61664;48.112;11.662;2022-12-07T16:11:41;95189.66;;;6.51
34310;BMP280;61664;48.112;11.662;2022-12-07T16:14:08;95185.03;;;6.43
34310;BMP280;61664;48.112;11.662;2022-12-07T16:16:35;95182.69;;;6.45